sensor_id;sensor_type;location;lat;lon;timestamp;P1;durP1;ratioP1;P2;durP2;ratioP2
5813;SDS011;2933;52.302;8.134;2023-03-01T00:00:46;4.47;;;3.63;;
5813;SDS011;2933;52.302;8.134;2023-03-01T00:05:48;7.00;;;3.40;;
5813;SDS011;2933;52.302;8.134;2023-03-01T00:10:59;3.03;;;2.73;;
5813;SDS011;2933;52.302;8.134;2023-03-01T00:16:01;4.00;;;3.70;;
5813;SDS011;2933;52.302;8.134;2023-03-01T00:21:05;3.93;;;3.60;;
5813;SDS011;2933;52.302;8.134;2023-03-01T00:26:08;6.43;;;3.67;;
5813;SDS011;2933;52.302;8.134;2023-03-01T00:31:12;6.13;;;3.80;;
5813;SDS011;2933;52.302;8.134;2023-03-01T00:36:16;3.83;;;3.53;;
5813;SDS011;2933;52.302;8.134;2023-03-01T00:41:18;4.10;;;3.40;;
5813;SDS011;2933;52.302;8.134;2023-03-01T00:46:23;4.90;;;3.47;;
5813;SDS011;2933;52.302;8.134;2023-03-01T00:51:27;4.43;;;3.40;;
5813;SDS011;2933;52.302;8.134;2023-03-01T00:56:29;4.80;;;3.83;;
5813;SDS011;2933;52.302;8.134;2023-03-01T01:01:31;7.20;;;4.07;;
5813;SDS011;2933;52.302;8.134;2023-03-01T01:06:35;5.10;;;4.03;;
5813;SDS011;2933;52.302;8.134;2023-03-01T01:11:38;6.57;;;3.63;;
5813;SDS011;2933;52.302;8.134;2023-03-01T01:16:40;4.00;;;3.70;;
5813;SDS011;2933;52.302;8.134;2023-03-01T01:21:43;3.73;;;3.53;;
5813;SDS011;2933;52.302;8.134;2023-03-01T01:26:45;4.27;;;3.97;;
5813;SDS011;2933;52.302;8.134;2023-03-01T01:31:47;7.97;;;3.40;;
5813;SDS011;2933;52.302;8.134;2023-03-01T01:36:50;7.40;;;4.00;;
5813;SDS011;2933;52.302;8.134;2023-03-01T01:41:53;3.70;;;3.40;;
5813;SDS011;2933;52.302;8.134;2023-03-01T01:46:55;8.17;;;3.50;;
5813;SDS011;2933;52.302;8.134;2023-03-01T01:52:02;5.70;;;3.63;;
5813;SDS011;2933;52.302;8.134;2023-03-01T01:57:10;4.23;;;3.77;;
5813;SDS011;2933;52.302;8.134;2023-03-01T02:02:15;4.43;;;3.90;;
5813;SDS011;2933;52.302;8.134;2023-03-01T02:07:19;3.80;;;3.50;;
5813;SDS011;2933;52.302;8.134;2023-03-01T02:12:23;3.73;;;3.33;;
5813;SDS011;2933;52.302;8.134;2023-03-01T02:17:26;4.50;;;3.53;;
5813;SDS011;2933;52.302;8.134;2023-03-01T02:22:30;5.20;;;4.17;;
5813;SDS011;2933;52.302;8.134;2023-03-01T02:27:36;4.90;;;4.23;;
5813;SDS011;2933;52.302;8.134;2023-03-01T02:32:43;4.73;;;3.83;;
5813;SDS011;2933;52.302;8.134;2023-03-01T02:37:45;5.60;;;4.00;;
5813;SDS011;2933;52.302;8.134;2023-03-01T02:42:51;6.33;;;3.60;;
5813;SDS011;2933;52.302;8.134;2023-03-01T02:47:57;4.13;;;3.73;;
5813;SDS011;2933;52.302;8.134;2023-03-01T02:53:00;4.03;;;3.43;;
5813;SDS011;2933;52.302;8.134;2023-03-01T02:58:09;3.90;;;3.70;;
5813;SDS011;2933;52.302;8.134;2023-03-01T03:03:13;4.93;;;3.50;;
5813;SDS011;2933;52.302;8.134;2023-03-01T03:08:16;4.03;;;3.73;;
5813;SDS011;2933;52.302;8.134;2023-03-01T03:13:23;3.80;;;3.33;;
5813;SDS011;2933;52.302;8.134;2023-03-01T03:18:29;7.03;;;3.60;;
5813;SDS011;2933;52.302;8.134;2023-03-01T03:23:31;4.50;;;3.40;;
5813;SDS011;2933;52.302;8.134;2023-03-01T03:28:33;5.00;;;3.33;;
5813;SDS011;2933;52.302;8.134;2023-03-01T03:33:37;5.13;;;3.73;;
5813;SDS011;2933;52.302;8.134;2023-03-01T03:38:38;4.10;;;3.63;;
5813;SDS011;2933;52.302;8.134;2023-03-01T03:43:40;5.17;;;4.53;;
5813;SDS011;2933;52.302;8.134;2023-03-01T03:48:45;7.80;;;4.37;;
5813;SDS011;2933;52.302;8.134;2023-03-01T03:53:47;10.63;;;4.60;;
5813;SDS011;2933;52.302;8.134;2023-03-01T03:58:48;6.60;;;4.50;;
5813;SDS011;2933;52.302;8.134;2023-03-01T04:03:51;3.73;;;3.43;;
5813;SDS011;2933;52.302;8.134;2023-03-01T04:08:54;6.77;;;3.73;;
5813;SDS011;2933;52.302;8.134;2023-03-01T04:13:58;7.30;;;4.67;;
5813;SDS011;2933;52.302;8.134;2023-03-01T04:19:01;6.00;;;4.17;;
5813;SDS011;2933;52.302;8.134;2023-03-01T04:24:03;4.20;;;3.80;;
5813;SDS011;2933;52.302;8.134;2023-03-01T04:29:05;4.07;;;3.67;;
5813;SDS011;2933;52.302;8.134;2023-03-01T04:34:08;5.57;;;4.50;;
5813;SDS011;2933;52.302;8.134;2023-03-01T04:39:10;4.10;;;3.80;;
5813;SDS011;2933;52.302;8.134;2023-03-01T04:44:13;4.83;;;4.13;;
5813;SDS011;2933;52.302;8.134;2023-03-01T04:49:16;5.37;;;4.13;;
5813;SDS011;2933;52.302;8.134;2023-03-01T04:54:17;5.07;;;3.90;;
5813;SDS011;2933;52.302;8.134;2023-03-01T04:59:19;4.37;;;3.97;;
5813;SDS011;2933;52.302;8.134;2023-03-01T05:04:24;5.93;;;3.63;;
5813;SDS011;2933;52.302;8.134;2023-03-01T05:09:25;4.60;;;3.93;;
5813;SDS011;2933;52.302;8.134;2023-03-01T05:14:27;4.60;;;4.20;;
5813;SDS011;2933;52.302;8.134;2023-03-01T05:19:30;7.87;;;4.30;;
5813;SDS011;2933;52.302;8.134;2023-03-01T05:24:33;4.87;;;4.40;;
5813;SDS011;2933;52.302;8.134;2023-03-01T05:29:35;4.20;;;3.63;;
5813;SDS011;2933;52.302;8.134;2023-03-01T05:34:41;7.30;;;4.23;;
5813;SDS011;2933;52.302;8.134;2023-03-01T05:39:43;5.50;;;3.77;;
5813;SDS011;2933;52.302;8.134;2023-03-01T05:44:44;3.97;;;3.63;;
5813;SDS011;2933;52.302;8.134;2023-03-01T05:49:47;7.73;;;3.33;;
5813;SDS011;2933;52.302;8.134;2023-03-01T05:54:50;5.33;;;3.80;;
5813;SDS011;2933;52.302;8.134;2023-03-01T05:59:51;3.90;;;3.60;;
5813;SDS011;2933;52.302;8.134;2023-03-01T06:04:54;3.93;;;3.50;;
5813;SDS011;2933;52.302;8.134;2023-03-01T06:09:56;5.13;;;3.40;;
5813;SDS011;2933;52.302;8.134;2023-03-01T06:14:58;3.67;;;3.37;;
5813;SDS011;2933;52.302;8.134;2023-03-01T06:20:01;4.40;;;4.10;;
5813;SDS011;2933;52.302;8.134;2023-03-01T06:25:02;9.53;;;4.90;;
5813;SDS011;2933;52.302;8.134;2023-03-01T06:30:05;4.93;;;3.90;;
5813;SDS011;2933;52.302;8.134;2023-03-01T06:35:11;4.53;;;4.17;;
5813;SDS011;2933;52.302;8.134;2023-03-01T06:40:14;8.07;;;4.60;;
5813;SDS011;2933;52.302;8.134;2023-03-01T06:45:17;7.13;;;4.33;;
5813;SDS011;2933;52.302;8.134;2023-03-01T06:50:21;10.83;;;4.60;;
5813;SDS011;2933;52.302;8.134;2023-03-01T06:55:22;9.63;;;4.83;;
5813;SDS011;2933;52.302;8.134;2023-03-01T07:00:24;5.80;;;4.30;;
5813;SDS011;2933;52.302;8.134;2023-03-01T07:05:27;4.67;;;4.20;;
5813;SDS011;2933;52.302;8.134;2023-03-01T07:10:29;7.27;;;4.73;;
5813;SDS011;2933;52.302;8.134;2023-03-01T07:15:30;5.83;;;4.43;;
5813;SDS011;2933;52.302;8.134;2023-03-01T07:20:34;5.93;;;4.97;;
5813;SDS011;2933;52.302;8.134;2023-03-01T07:25:35;5.00;;;4.60;;
5813;SDS011;2933;52.302;8.134;2023-03-01T07:30:37;6.70;;;5.30;;
5813;SDS011;2933;52.302;8.134;2023-03-01T07:35:41;8.53;;;5.40;;
5813;SDS011;2933;52.302;8.134;2023-03-01T07:40:43;5.97;;;5.17;;
5813;SDS011;2933;52.302;8.134;2023-03-01T07:45:45;9.77;;;6.20;;
5813;SDS011;2933;52.302;8.134;2023-03-01T07:50:48;8.53;;;7.03;;
5813;SDS011;2933;52.302;8.134;2023-03-01T07:55:50;9.67;;;6.70;;
5813;SDS011;2933;52.302;8.134;2023-03-01T08:01:01;17.03;;;9.90;;
5813;SDS011;2933;52.302;8.134;2023-03-01T08:06:05;15.80;;;8.23;;
5813;SDS011;2933;52.302;8.134;2023-03-01T08:11:09;12.47;;;8.40;;
5813;SDS011;2933;52.302;8.134;2023-03-01T08:16:13;14.67;;;9.20;;
5813;SDS011;2933;52.302;8.134;2023-03-01T08:21:17;15.60;;;8.80;;
5813;SDS011;2933;52.302;8.134;2023-03-01T08:26:20;17.07;;;9.10;;
5813;SDS011;2933;52.302;8.134;2023-03-01T08:31:23;12.77;;;7.63;;
5813;SDS011;2933;52.302;8.134;2023-03-01T08:36:29;12.27;;;6.97;;
5813;SDS011;2933;52.302;8.134;2023-03-01T08:41:32;8.03;;;6.03;;
5813;SDS011;2933;52.302;8.134;2023-03-01T08:46:35;15.17;;;7.20;;
5813;SDS011;2933;52.302;8.134;2023-03-01T08:51:39;12.10;;;6.50;;
5813;SDS011;2933;52.302;8.134;2023-03-01T08:56:41;6.67;;;5.60;;
5813;SDS011;2933;52.302;8.134;2023-03-01T09:01:43;11.90;;;5.87;;
5813;SDS011;2933;52.302;8.134;2023-03-01T09:06:46;8.00;;;5.70;;
5813;SDS011;2933;52.302;8.134;2023-03-01T09:11:48;10.10;;;6.10;;
5813;SDS011;2933;52.302;8.134;2023-03-01T09:16:50;9.50;;;5.07;;
5813;SDS011;2933;52.302;8.134;2023-03-01T09:21:53;7.83;;;4.10;;
5813;SDS011;2933;52.302;8.134;2023-03-01T09:26:56;8.47;;;4.50;;
5813;SDS011;2933;52.302;8.134;2023-03-01T09:31:57;5.67;;;4.10;;
5813;SDS011;2933;52.302;8.134;2023-03-01T09:37:01;4.50;;;4.10;;
5813;SDS011;2933;52.302;8.134;2023-03-01T09:42:03;9.80;;;4.27;;
5813;SDS011;2933;52.302;8.134;2023-03-01T09:47:05;4.83;;;4.10;;
5813;SDS011;2933;52.302;8.134;2023-03-01T09:52:17;7.63;;;4.77;;
5813;SDS011;2933;52.302;8.134;2023-03-01T09:57:26;7.40;;;4.43;;
5813;SDS011;2933;52.302;8.134;2023-03-01T10:02:37;5.97;;;4.30;;
5813;SDS011;2933;52.302;8.134;2023-03-01T10:07:45;5.27;;;4.53;;
5813;SDS011;2933;52.302;8.134;2023-03-01T10:12:54;6.53;;;4.43;;
5813;SDS011;2933;52.302;8.134;2023-03-01T10:17:59;4.57;;;3.90;;
5813;SDS011;2933;52.302;8.134;2023-03-01T10:23:08;4.30;;;3.90;;
5813;SDS011;2933;52.302;8.134;2023-03-01T10:28:14;5.00;;;3.33;;
5813;SDS011;2933;52.302;8.134;2023-03-01T10:33:20;6.33;;;3.80;;
5813;SDS011;2933;52.302;8.134;2023-03-01T10:38:25;6.20;;;4.30;;
5813;SDS011;2933;52.302;8.134;2023-03-01T10:43:30;5.63;;;3.33;;
5813;SDS011;2933;52.302;8.134;2023-03-01T10:48:44;4.00;;;3.60;;
5813;SDS011;2933;52.302;8.134;2023-03-01T10:53:49;11.63;;;4.53;;
5813;SDS011;2933;52.302;8.134;2023-03-01T10:58:58;8.43;;;4.63;;
5813;SDS011;2933;52.302;8.134;2023-03-01T11:04:09;9.00;;;4.90;;
5813;SDS011;2933;52.302;8.134;2023-03-01T11:09:15;8.37;;;4.93;;
5813;SDS011;2933;52.302;8.134;2023-03-01T11:14:20;6.87;;;4.53;;
5813;SDS011;2933;52.302;8.134;2023-03-01T11:19:23;7.47;;;4.30;;
5813;SDS011;2933;52.302;8.134;2023-03-01T11:24:29;7.00;;;4.87;;
5813;SDS011;2933;52.302;8.134;2023-03-01T11:29:37;5.27;;;3.73;;
5813;SDS011;2933;52.302;8.134;2023-03-01T11:34:43;6.77;;;3.70;;
5813;SDS011;2933;52.302;8.134;2023-03-01T11:39:52;3.67;;;3.37;;
5813;SDS011;2933;52.302;8.134;2023-03-01T11:44:59;12.10;;;3.20;;
5813;SDS011;2933;52.302;8.134;2023-03-01T11:50:16;6.03;;;4.20;;
5813;SDS011;2933;52.302;8.134;2023-03-01T11:55:33;4.40;;;3.40;;
5813;SDS011;2933;52.302;8.134;2023-03-01T12:00:52;3.87;;;3.50;;
5813;SDS011;2933;52.302;8.134;2023-03-01T12:11:41;6.90;;;3.30;;
5813;SDS011;2933;52.302;8.134;2023-03-01T12:16:56;4.73;;;3.37;;
5813;SDS011;2933;52.302;8.134;2023-03-01T12:22:21;4.67;;;3.27;;
5813;SDS011;2933;52.302;8.134;2023-03-01T12:27:42;6.93;;;4.20;;
5813;SDS011;2933;52.302;8.134;2023-03-01T12:32:59;3.57;;;3.27;;
5813;SDS011;2933;52.302;8.134;2023-03-01T12:38:15;3.60;;;3.00;;
5813;SDS011;2933;52.302;8.134;2023-03-01T12:43:30;3.20;;;2.73;;
5813;SDS011;2933;52.302;8.134;2023-03-01T12:48:40;3.47;;;2.83;;
5813;SDS011;2933;52.302;8.134;2023-03-01T12:54:01;2.90;;;2.43;;
5813;SDS011;2933;52.302;8.134;2023-03-01T12:59:15;4.63;;;3.07;;
5813;SDS011;2933;52.302;8.134;2023-03-01T13:04:30;2.13;;;2.03;;
5813;SDS011;2933;52.302;8.134;2023-03-01T13:09:40;2.70;;;2.23;;
5813;SDS011;2933;52.302;8.134;2023-03-01T13:14:50;2.57;;;2.33;;
5813;SDS011;2933;52.302;8.134;2023-03-01T13:19:56;3.60;;;2.80;;
5813;SDS011;2933;52.302;8.134;2023-03-01T13:25:02;3.00;;;2.57;;
5813;SDS011;2933;52.302;8.134;2023-03-01T13:30:39;3.00;;;2.70;;
5813;SDS011;2933;52.302;8.134;2023-03-01T13:35:42;4.90;;;2.13;;
5813;SDS011;2933;52.302;8.134;2023-03-01T13:40:57;2.70;;;2.20;;
5813;SDS011;2933;52.302;8.134;2023-03-01T13:46:01;2.73;;;2.43;;
5813;SDS011;2933;52.302;8.134;2023-03-01T13:51:11;2.20;;;2.00;;
5813;SDS011;2933;52.302;8.134;2023-03-01T13:56:14;2.13;;;2.03;;
5813;SDS011;2933;52.302;8.134;2023-03-01T14:01:25;2.40;;;2.27;;
5813;SDS011;2933;52.302;8.134;2023-03-01T14:06:29;2.10;;;1.93;;
5813;SDS011;2933;52.302;8.134;2023-03-01T14:17:20;4.30;;;2.50;;
5813;SDS011;2933;52.302;8.134;2023-03-01T14:22:34;5.30;;;3.10;;
5813;SDS011;2933;52.302;8.134;2023-03-01T14:27:37;4.70;;;2.53;;
5813;SDS011;2933;52.302;8.134;2023-03-01T14:32:43;4.13;;;2.17;;
5813;SDS011;2933;52.302;8.134;2023-03-01T14:37:53;4.97;;;2.57;;
5813;SDS011;2933;52.302;8.134;2023-03-01T14:42:56;3.10;;;2.10;;
5813;SDS011;2933;52.302;8.134;2023-03-01T14:48:02;2.50;;;2.33;;
5813;SDS011;2933;52.302;8.134;2023-03-01T14:53:07;4.57;;;2.27;;
5813;SDS011;2933;52.302;8.134;2023-03-01T14:58:18;2.40;;;2.20;;
5813;SDS011;2933;52.302;8.134;2023-03-01T15:03:25;2.60;;;2.20;;
5813;SDS011;2933;52.302;8.134;2023-03-01T15:08:32;3.10;;;2.13;;
5813;SDS011;2933;52.302;8.134;2023-03-01T15:13:34;1.73;;;1.63;;
5813;SDS011;2933;52.302;8.134;2023-03-01T15:18:38;3.03;;;2.13;;
5813;SDS011;2933;52.302;8.134;2023-03-01T15:23:49;2.30;;;2.10;;
5813;SDS011;2933;52.302;8.134;2023-03-01T15:28:54;2.00;;;1.60;;
5813;SDS011;2933;52.302;8.134;2023-03-01T15:34:10;2.57;;;2.00;;
5813;SDS011;2933;52.302;8.134;2023-03-01T15:39:27;2.23;;;2.13;;
5813;SDS011;2933;52.302;8.134;2023-03-01T15:44:37;2.77;;;2.10;;
5813;SDS011;2933;52.302;8.134;2023-03-01T15:49:43;2.07;;;1.80;;
5813;SDS011;2933;52.302;8.134;2023-03-01T15:54:45;2.13;;;2.03;;
5813;SDS011;2933;52.302;8.134;2023-03-01T15:59:46;2.23;;;2.03;;
5813;SDS011;2933;52.302;8.134;2023-03-01T16:04:50;1.90;;;1.80;;
5813;SDS011;2933;52.302;8.134;2023-03-01T16:09:53;1.53;;;1.40;;
5813;SDS011;2933;52.302;8.134;2023-03-01T16:14:55;7.90;;;2.13;;
5813;SDS011;2933;52.302;8.134;2023-03-01T16:19:59;4.30;;;1.80;;
5813;SDS011;2933;52.302;8.134;2023-03-01T16:25:01;2.30;;;2.10;;
5813;SDS011;2933;52.302;8.134;2023-03-01T16:30:19;4.67;;;2.40;;
5813;SDS011;2933;52.302;8.134;2023-03-01T16:35:23;2.43;;;1.97;;
5813;SDS011;2933;52.302;8.134;2023-03-01T16:40:25;2.57;;;2.37;;
5813;SDS011;2933;52.302;8.134;2023-03-01T16:45:29;3.23;;;2.10;;
5813;SDS011;2933;52.302;8.134;2023-03-01T16:50:36;1.90;;;1.73;;
5813;SDS011;2933;52.302;8.134;2023-03-01T16:55:38;2.10;;;1.93;;
5813;SDS011;2933;52.302;8.134;2023-03-01T17:00:45;2.27;;;1.90;;
5813;SDS011;2933;52.302;8.134;2023-03-01T17:05:48;6.33;;;2.23;;
5813;SDS011;2933;52.302;8.134;2023-03-01T17:10:50;1.90;;;1.80;;
5813;SDS011;2933;52.302;8.134;2023-03-01T17:15:52;2.33;;;2.13;;
5813;SDS011;2933;52.302;8.134;2023-03-01T17:20:54;3.00;;;2.50;;
5813;SDS011;2933;52.302;8.134;2023-03-01T17:25:56;5.30;;;2.27;;
5813;SDS011;2933;52.302;8.134;2023-03-01T17:30:58;2.27;;;2.10;;
5813;SDS011;2933;52.302;8.134;2023-03-01T17:36:02;2.80;;;2.40;;
5813;SDS011;2933;52.302;8.134;2023-03-01T17:41:04;2.30;;;2.20;;
5813;SDS011;2933;52.302;8.134;2023-03-01T17:46:05;4.70;;;3.27;;
5813;SDS011;2933;52.302;8.134;2023-03-01T17:51:09;3.93;;;3.20;;
5813;SDS011;2933;52.302;8.134;2023-03-01T17:56:12;3.87;;;3.10;;
5813;SDS011;2933;52.302;8.134;2023-03-01T18:01:14;4.40;;;2.90;;
5813;SDS011;2933;52.302;8.134;2023-03-01T18:06:19;6.23;;;2.93;;
5813;SDS011;2933;52.302;8.134;2023-03-01T18:11:22;3.43;;;3.13;;
5813;SDS011;2933;52.302;8.134;2023-03-01T18:16:25;3.90;;;2.90;;
5813;SDS011;2933;52.302;8.134;2023-03-01T18:21:29;9.60;;;3.33;;
5813;SDS011;2933;52.302;8.134;2023-03-01T18:26:30;5.83;;;3.30;;
5813;SDS011;2933;52.302;8.134;2023-03-01T18:31:32;5.33;;;3.40;;
5813;SDS011;2933;52.302;8.134;2023-03-01T18:36:35;5.20;;;3.33;;
5813;SDS011;2933;52.302;8.134;2023-03-01T18:41:36;2.90;;;2.70;;
5813;SDS011;2933;52.302;8.134;2023-03-01T18:46:38;5.80;;;2.83;;
5813;SDS011;2933;52.302;8.134;2023-03-01T18:51:42;12.67;;;3.13;;
5813;SDS011;2933;52.302;8.134;2023-03-01T18:56:44;4.87;;;3.47;;
5813;SDS011;2933;52.302;8.134;2023-03-01T19:01:45;3.80;;;3.20;;
5813;SDS011;2933;52.302;8.134;2023-03-01T19:06:49;3.93;;;2.70;;
5813;SDS011;2933;52.302;8.134;2023-03-01T19:11:50;4.30;;;2.60;;
5813;SDS011;2933;52.302;8.134;2023-03-01T19:16:52;2.90;;;2.70;;
5813;SDS011;2933;52.302;8.134;2023-03-01T19:21:55;3.77;;;3.30;;
5813;SDS011;2933;52.302;8.134;2023-03-01T19:26:56;5.83;;;2.90;;
5813;SDS011;2933;52.302;8.134;2023-03-01T19:31:58;3.20;;;2.90;;
5813;SDS011;2933;52.302;8.134;2023-03-01T19:37:01;4.90;;;3.13;;
5813;SDS011;2933;52.302;8.134;2023-03-01T19:42:03;5.00;;;3.10;;
5813;SDS011;2933;52.302;8.134;2023-03-01T19:47:04;3.20;;;2.93;;
5813;SDS011;2933;52.302;8.134;2023-03-01T19:52:07;5.00;;;3.07;;
5813;SDS011;2933;52.302;8.134;2023-03-01T19:57:09;3.23;;;2.80;;
5813;SDS011;2933;52.302;8.134;2023-03-01T20:02:11;4.70;;;3.40;;
5813;SDS011;2933;52.302;8.134;2023-03-01T20:07:14;7.10;;;3.60;;
5813;SDS011;2933;52.302;8.134;2023-03-01T20:12:15;4.57;;;3.47;;
5813;SDS011;2933;52.302;8.134;2023-03-01T20:17:18;5.03;;;3.30;;
5813;SDS011;2933;52.302;8.134;2023-03-01T20:22:21;5.53;;;2.80;;
5813;SDS011;2933;52.302;8.134;2023-03-01T20:27:22;4.57;;;3.90;;
5813;SDS011;2933;52.302;8.134;2023-03-01T20:32:24;4.33;;;3.50;;
5813;SDS011;2933;52.302;8.134;2023-03-01T20:37:27;6.27;;;3.30;;
5813;SDS011;2933;52.302;8.134;2023-03-01T20:42:28;3.30;;;3.00;;
5813;SDS011;2933;52.302;8.134;2023-03-01T20:47:30;5.00;;;3.17;;
5813;SDS011;2933;52.302;8.134;2023-03-01T20:52:33;4.73;;;3.43;;
5813;SDS011;2933;52.302;8.134;2023-03-01T20:57:35;4.60;;;3.50;;
5813;SDS011;2933;52.302;8.134;2023-03-01T21:02:36;3.73;;;3.37;;
5813;SDS011;2933;52.302;8.134;2023-03-01T21:07:39;5.03;;;3.67;;
5813;SDS011;2933;52.302;8.134;2023-03-01T21:12:41;4.73;;;4.07;;
5813;SDS011;2933;52.302;8.134;2023-03-01T21:17:43;8.27;;;4.20;;
5813;SDS011;2933;52.302;8.134;2023-03-01T21:22:52;7.73;;;3.67;;
5813;SDS011;2933;52.302;8.134;2023-03-01T21:27:54;7.53;;;3.33;;
5813;SDS011;2933;52.302;8.134;2023-03-01T21:32:55;6.90;;;3.80;;
5813;SDS011;2933;52.302;8.134;2023-03-01T21:37:58;5.67;;;3.53;;
5813;SDS011;2933;52.302;8.134;2023-03-01T21:43:00;4.50;;;3.93;;
5813;SDS011;2933;52.302;8.134;2023-03-01T21:48:01;4.77;;;4.10;;
5813;SDS011;2933;52.302;8.134;2023-03-01T21:53:04;6.47;;;4.37;;
5813;SDS011;2933;52.302;8.134;2023-03-01T21:58:06;7.37;;;4.17;;
5813;SDS011;2933;52.302;8.134;2023-03-01T22:03:07;6.20;;;4.03;;
5813;SDS011;2933;52.302;8.134;2023-03-01T22:08:28;5.70;;;4.00;;
5813;SDS011;2933;52.302;8.134;2023-03-01T22:13:29;6.03;;;4.10;;
5813;SDS011;2933;52.302;8.134;2023-03-01T22:18:31;5.43;;;4.10;;
5813;SDS011;2933;52.302;8.134;2023-03-01T22:23:34;4.37;;;3.97;;
5813;SDS011;2933;52.302;8.134;2023-03-01T22:28:36;4.60;;;4.00;;
5813;SDS011;2933;52.302;8.134;2023-03-01T22:33:38;8.17;;;4.90;;
5813;SDS011;2933;52.302;8.134;2023-03-01T22:38:41;6.10;;;4.37;;
5813;SDS011;2933;52.302;8.134;2023-03-01T22:43:42;6.27;;;3.77;;
5813;SDS011;2933;52.302;8.134;2023-03-01T22:48:44;6.80;;;5.00;;
5813;SDS011;2933;52.302;8.134;2023-03-01T22:53:48;6.13;;;4.23;;
5813;SDS011;2933;52.302;8.134;2023-03-01T22:58:49;7.10;;;4.73;;
5813;SDS011;2933;52.302;8.134;2023-03-01T23:03:51;6.93;;;4.97;;
5813;SDS011;2933;52.302;8.134;2023-03-01T23:08:55;9.33;;;4.87;;
5813;SDS011;2933;52.302;8.134;2023-03-01T23:13:58;6.07;;;4.43;;
5813;SDS011;2933;52.302;8.134;2023-03-01T23:18:59;5.53;;;3.83;;
5813;SDS011;2933;52.302;8.134;2023-03-01T23:24:02;5.87;;;3.67;;
5813;SDS011;2933;52.302;8.134;2023-03-01T23:29:04;5.50;;;3.70;;
5813;SDS011;2933;52.302;8.134;2023-03-01T23:34:07;11.13;;;5.20;;
5813;SDS011;2933;52.302;8.134;2023-03-01T23:39:10;7.40;;;5.20;;
5813;SDS011;2933;52.302;8.134;2023-03-01T23:44:14;8.70;;;4.90;;
5813;SDS011;2933;52.302;8.134;2023-03-01T23:49:18;6.53;;;4.70;;
5813;SDS011;2933;52.302;8.134;2023-03-01T23:54:22;10.00;;;4.77;;
5813;SDS011;2933;52.302;8.134;2023-03-01T23:59:24;8.93;;;5.40;;
